aviador You're here:

LDSP Decoded Metar

SPLIT in CROATIA
Report Time2018-01-19 18:30:00
UTC Time2018-01-19 18:49:02
Flight Rules vfr VFR
Wind100° at 08 kt
W.Decomp.*RWY 05: 5.4 kt HW 5.9 kt RCW
W.Rank100° ranks 3
Current wind is above 100° avg. (7.1)
Visibility9999 m
Phenomena:N/A
Clouds:Few 020 Hf
Broken 040 Hf
Expected CloudBase > 1,200 ft AGL from Temp-Dew spread
Ceiling4,000 ft
Temp12°C (ISA -3)
Dew Point09°C (82% RH)
AAT8.9°C
QNH1011 hPa
Density Alt-49 ft
Elevation69 ft
Report Wrong Elevation
Raw Report
LDSP 191830Z 10008KT 060V120 9999 FEW020 BKN040 12/09 Q1011
NOSIG=

Extra information for LDSP:More info

Metar Taf Metar & Taf Last 4 Metars F.Rules Stats Wind Profile Meteogram Temp Stats Airport Information Weather charts Add Link Nearby VenuesMetar ALERT Operation Metar Decoded Social comments